Hauptseite
METAR-TAF:

METAR-TAF

Flughäfen :

Bohrplattform

P11-b, Niederlande

Breite: 52-21-36N, Länge: 3-20-30E, Höhe: 24 m

Beobachtung

Neuester Wetterbericht von vor 35 Minuten, um 13:55 UTC
Wind 15 kt aus Nordost
Temperatur 14°C
Luftfeuchtigkeit 94%
Luftdruck 1015 hPa
Sichtweite: 7000 m
Leicht bewölkt in der Höhe von 100 ft
Geschlossene Wolkendecke in der Höhe von 300 ft

METAR: EHPG 081355Z AUTO 05015KT 7000 FEW001 OVC003 14/13 Q1015

Zeit: 16:30 (14:30 UTC)


TAF: fehlend

Wetterbeobachtungen und Prognosen von mehr als 4000 Flughäfen (METAR und TAF Bericht).

Die verfügbaren Stationen werden durch gelbe und rote Markierungen auf der Karte dargestellt.

Führen Sie die Maus auf sie, um den Namen der Station zu sehen.

Darauf klicken, um die Beobachtung von Wetterbeobachtungen und Prognosen zu sehen.

Um die Karte zu ändern : klicken Sie auf den grünen Tasten mit einem schwarzen Kreuz Zum Vergrößern, auf den grünen Button mit einem Gedankenstrich zu verkleinern, oder auf die grünen Pfeile für benachbarte Karten.


METAR-TAF: